Time;durP1;ratioP1;P1;durP2;ratioP2;P2;SDS_P1;SDS_P2;PMS_P1;PMS_P2;Temp;Humidity;BMP_temperature;BMP_pressure;BME280_temperature;BME280_humidity;BME280_pressure;Samples;Min_cycle;Max_cycle;Signal;HPM_P1;HPM_P2
2023/03/16 02:07:04;;;;;;;;;;;;;;;;;;;;;
2023/03/16 02:11:31;;;;;;;;;;;;;;;;;;;;;
2023/03/16 03:00:22;;;;;;;;;;;;;;;;;;;;;
2023/03/16 03:04:41;;;;;;;;;;;;;;;;;;;;;
2023/03/16 03:09:00;;;;;;;;;;;;;;;;;;;;;
2023/03/16 03:13:08;;;;;;;;;;;;;;;;;;;;;
2023/03/16 03:17:07;;;;;;;;;;;;;;;;;;;;;
2023/03/16 03:21:49;;;;;;;;;;;;;;;;;;;;;
2023/03/16 04:17:01;;;;;;;;;;;;;;;;;;;;;
2023/03/16 04:21:28;;;;;;;;;;;;;;;;;;;;;
2023/03/16 04:28:49;;;;;;;;;;;;;;;;;;;;;
2023/03/16 05:28:58;;;;;;;16.90;10.50;;;;;;;-0.03;70.88;100778.59;109464;1269;22006;-88
2023/03/16 05:32:50;;;;;;;18.00;10.20;;;;;;;-0.00;70.87;100777.84;109466;1287;21946;-90
2023/03/16 05:39:39;;;;;;;18.20;10.60;;;;;;;0.02;70.98;100783.11;108698;1287;22561;-88
2023/03/16 05:42:16;;;;;;;23.70;13.00;;;;;;;0.03;70.93;100781.95;107454;1296;22550;-85
2023/03/16 05:45:28;;;;;;;24.60;12.10;;;;;;;0.06;71.03;100782.91;107794;1282;23965;-88
2023/03/16 05:54:52;;;;;;;22.90;10.90;;;;;;;0.19;70.95;100790.54;107704;1299;23225;-86
2023/03/16 05:57:36;;;;;;;;;;;;;;;0.21;71.12;100786.46;107284;1304;22635;-86
2023/03/16 06:00:14;;;;;;;17.80;10.40;;;;;;;0.22;71.00;100790.14;107658;1301;22978;-85
2023/03/16 06:03:08;;;;;;;22.60;12.30;;;;;;;0.25;71.04;100792.85;107761;1309;22132;-88
2023/03/16 06:06:00;;;;;;;24.20;13.30;;;;;;;0.27;70.87;100791.34;107149;1312;22532;-89
2023/03/16 06:09:13;;;;;;;22.70;12.60;;;;;;;0.35;71.04;100793.40;107136;1319;22196;-88
2023/03/16 06:11:49;;;;;;;24.90;12.00;;;;;;;0.45;70.87;100795.19;106850;1316;22268;-85
2023/03/16 06:14:22;;;;;;;15.70;9.40;;;;;;;0.50;70.82;100795.71;106820;1325;22270;-85
2023/03/16 06:20:19;;;;;;;23.50;13.20;;;;;;;0.60;70.64;100792.28;107084;1307;545022;-87
2023/03/16 06:24:28;;;;;;;24.00;12.60;;;;;;;0.78;70.76;100797.28;107508;1308;557617;-90
2023/03/16 06:27:25;;;;;;;20.20;10.50;;;;;;;0.85;70.43;100800.48;109851;1287;22375;-88
2023/03/16 06:30:44;;;;;;;25.40;12.90;;;;;;;0.91;70.13;100802.77;109894;1286;22126;-88
2023/03/16 06:34:26;;;;;;;23.40;13.20;;;;;;;0.97;69.94;100801.64;110035;1283;22374;-88
2023/03/16 06:37:56;;;;;;;24.10;12.90;;;;;;;1.03;69.91;100800.60;105113;1287;6244353;-88
2023/03/16 06:41:27;;;;;;;18.10;12.30;;;;;;;1.13;69.88;100807.39;109846;1287;22592;-91
2023/03/16 06:45:00;;;;;;;23.90;11.60;;;;;;;1.19;69.66;100804.67;109349;1293;22320;-89
2023/03/16 06:48:16;;;;;;;;;;;;;;;;;;;;;
2023/03/16 06:52:27;;;;;;;23.00;14.90;;;;;;;1.34;69.42;100810.05;107305;1302;557773;-88
2023/03/16 07:02:27;;;;;;;;;;;;;;;;;;;;;
2023/03/16 07:05:31;;;;;;;24.90;14.50;;;;;;;1.78;68.69;100825.95;110641;1276;22482;-89
2023/03/16 07:08:57;;;;;;;21.30;12.00;;;;;;;1.90;68.66;100831.89;110205;1281;22133;-88
2023/03/16 07:12:13;;;;;;;;;;;;;;;;;;;;;
2023/03/16 07:15:25;;;;;;;22.40;12.90;;;;;;;2.14;68.36;100835.80;106074;1282;5261468;-90
2023/03/16 07:18:53;;;;;;;19.10;13.20;;;;;;;2.29;68.03;100839.42;110244;1280;22181;-89
2023/03/16 07:22:05;;;;;;;22.60;12.40;;;;;;;2.35;67.48;100839.96;109885;1286;22304;-89
2023/03/16 07:25:13;;;;;;;21.90;13.00;;;;;;;2.34;67.12;100840.79;109890;1286;22251;-89
2023/03/16 07:28:05;;;;;;;19.20;12.90;;;;;;;2.37;67.26;100836.18;110014;1284;22149;-89
2023/03/16 07:30:44;;;;;;;22.10;13.30;;;;;;;2.44;67.16;100834.52;110014;1284;22163;-88
2023/03/16 07:33:50;;;;;;;20.30;12.50;;;;;;;2.56;67.29;100831.75;109979;1284;23204;-88
2023/03/16 07:37:20;;;;;;;18.90;13.00;;;;;;;2.69;66.99;100834.20;109938;1284;22211;-89
2023/03/16 07:39:55;;;;;;;21.10;13.40;;;;;;;2.81;66.83;100834.76;109909;1284;22175;-84
2023/03/16 07:42:22;;;;;;;21.20;13.90;;;;;;;2.88;66.60;100835.30;109683;1288;22183;-86
2023/03/16 07:45:17;;;;;;;18.40;12.30;;;;;;;2.96;66.50;100837.11;109983;1280;22376;-87
2023/03/16 07:48:01;;;;;;;19.80;11.10;;;;;;;3.00;66.35;100844.00;110210;1278;22393;-85
2023/03/16 07:50:38;;;;;;;19.40;12.50;;;;;;;3.05;66.19;100843.09;110348;1278;22180;-86
2023/03/16 07:53:14;;;;;;;18.30;13.20;;;;;;;3.12;66.17;100845.05;110409;1272;22183;-85
2023/03/16 07:56:00;;;;;;;20.60;13.40;;;;;;;3.23;66.14;100843.27;109897;1283;22278;-89
2023/03/16 07:58:38;;;;;;;23.50;13.40;;;;;;;3.33;65.87;100845.29;109714;1292;22166;-86
2023/03/16 08:01:09;;;;;;;23.60;13.00;;;;;;;3.42;65.73;100849.00;109638;1289;22159;-86
2023/03/16 08:04:11;;;;;;;19.90;14.30;;;;;;;3.53;65.44;100849.46;109702;1287;22440;-87
2023/03/16 08:06:58;;;;;;;;;;;;;;;;;;;;;
2023/03/16 08:09:46;;;;;;;24.70;14.90;;;;;;;3.66;65.24;100842.52;109735;1280;22283;-86
2023/03/16 08:12:30;;;;;;;19.90;13.50;;;;;;;3.75;65.01;100847.09;109593;1280;22165;-86
2023/03/16 08:15:04;;;;;;;20.20;13.50;;;;;;;3.77;64.73;100841.38;109658;1288;22149;-86
2023/03/16 08:17:40;;;;;;;18.40;12.70;;;;;;;3.83;64.67;100845.37;109714;1288;22169;-86
2023/03/16 08:20:15;;;;;;;16.40;12.10;;;;;;;3.93;64.59;100848.96;109544;1288;22332;-86
2023/03/16 08:22:48;;;;;;;22.60;15.70;;;;;;;4.03;64.31;100852.49;109610;1289;22378;-86
2023/03/16 08:25:26;;;;;;;21.10;13.80;;;;;;;4.07;64.02;100855.06;109588;1287;22133;-86
2023/03/16 08:28:30;;;;;;;22.60;14.80;;;;;;;4.16;64.02;100852.47;109834;1289;22128;-87
2023/03/16 08:31:27;;;;;;;19.40;13.30;;;;;;;4.17;63.22;100849.19;109795;1290;22113;-89
2023/03/16 08:38:18;;;;;;;17.60;12.60;;;;;;;4.26;63.13;100851.32;107104;1304;557785;-89
2023/03/16 08:40:51;;;;;;;15.40;10.90;;;;;;;4.34;62.80;100854.67;110103;1280;22236;-88
2023/03/16 08:43:25;;;;;;;15.10;11.00;;;;;;;4.42;62.79;100858.16;110006;1264;22573;-84
2023/03/16 08:45:55;;;;;;;22.60;13.10;;;;;;;4.55;62.52;100858.30;109992;1280;22582;-87
2023/03/16 08:49:46;;;;;;;21.30;13.50;;;;;;;4.66;62.65;100859.58;107235;1306;544791;-88
2023/03/16 08:52:14;;;;;;;20.40;13.20;;;;;;;4.80;61.80;100861.63;109628;1283;22608;-86
2023/03/16 08:54:50;;;;;;;18.00;12.90;;;;;;;4.87;62.06;100864.58;109539;1289;22692;-87
2023/03/16 08:57:40;;;;;;;18.50;12.80;;;;;;;5.01;61.89;100863.13;109546;1289;25436;-87
2023/03/16 09:00:12;;;;;;;20.30;14.00;;;;;;;5.11;61.75;100866.83;109141;1287;22559;-86
2023/03/16 09:02:46;;;;;;;17.20;12.10;;;;;;;5.27;61.81;100868.91;107224;1281;1425324;-87
2023/03/16 09:05:32;;;;;;;15.20;11.60;;;;;;;5.36;60.92;100874.14;108369;1293;23176;-86
2023/03/16 09:08:09;;;;;;;14.50;11.30;;;;;;;5.41;60.64;100873.55;107221;1293;26637;-88
2023/03/16 09:10:44;;;;;;;17.20;11.00;;;;;;;5.54;60.07;100879.20;106946;1288;22629;-88
2023/03/16 09:13:21;;;;;;;15.40;11.40;;;;;;;5.58;60.07;100873.88;106121;1298;26538;-86
2023/03/16 09:22:49;;;;;;;12.10;8.10;;;;;;;5.61;59.09;100872.89;105167;1294;558004;-84
2023/03/16 09:25:19;;;;;;;15.60;8.80;;;;;;;5.66;58.63;100878.21;106851;1286;24261;-85
2023/03/16 09:27:49;;;;;;;10.80;8.60;;;;;;;5.69;58.81;100879.14;105691;1295;24359;-84
2023/03/16 09:30:17;;;;;;;10.40;7.20;;;;;;;5.80;59.00;100876.89;105547;1295;24259;-82
2023/03/16 09:32:47;;;;;;;8.40;6.90;;;;;;;5.88;58.38;100870.76;105538;1295;22557;-85
2023/03/16 09:35:15;;;;;;;11.40;7.40;;;;;;;5.96;58.47;100874.56;98170;1293;10260609;-85
2023/03/16 09:37:44;;;;;;;11.20;7.40;;;;;;;6.17;58.61;100871.63;106343;1289;22767;-85
2023/03/16 09:41:01;;;;;;;8.70;6.50;;;;;;;6.15;58.16;100875.27;107976;1295;22585;-89
2023/03/16 09:57:07;;;;;;;;;;;;;;;;;;;;;
2023/03/16 10:00:24;;;;;;;10.20;6.70;;;;;;;6.65;56.96;100870.27;109097;1298;22052;-89
2023/03/16 10:25:57;;;;;;;5.20;3.60;;;;;;;6.55;51.61;100877.66;87149;1276;22772;31
